createdAt,value
2022-08-05T00:01:36.549Z,26.10
2022-08-05T00:04:18.564Z,26.10
2022-08-05T00:06:51.753Z,26.10
2022-08-05T00:09:21.197Z,26.00
2022-08-05T00:11:55.847Z,25.90
2022-08-05T00:14:29.242Z,25.90
2022-08-05T00:17:02.940Z,25.90
2022-08-05T00:19:32.931Z,25.90
2022-08-05T00:22:03.408Z,25.90
2022-08-05T00:24:33.168Z,25.80
2022-08-05T00:27:04.497Z,25.60
2022-08-05T00:29:39.095Z,25.60
2022-08-05T00:32:15.351Z,25.50
2022-08-05T00:35:03.841Z,25.50
2022-08-05T00:37:52.534Z,25.40
2022-08-05T00:40:27.252Z,25.40
2022-08-05T00:43:20.650Z,25.40
2022-08-05T00:45:50.105Z,25.40
2022-08-05T00:48:27.490Z,25.30
2022-08-05T00:50:56.623Z,25.20
2022-08-05T00:53:45.092Z,25.20
2022-08-05T00:56:17.363Z,25.20
2022-08-05T00:58:51.629Z,25.20
2022-08-05T01:01:24.963Z,25.10
2022-08-05T01:04:14.132Z,25.00
2022-08-05T01:06:48.867Z,24.80
2022-08-05T01:09:20.474Z,24.60
2022-08-05T01:11:53.828Z,24.60
2022-08-05T01:14:31.214Z,24.60
2022-08-05T01:17:07.468Z,24.60
2022-08-05T01:20:02.001Z,24.60
2022-08-05T01:22:54.164Z,24.60
2022-08-05T01:26:01.553Z,24.60
2022-08-05T01:28:39.325Z,24.50
2022-08-05T01:31:23.885Z,24.50
2022-08-05T01:34:02.925Z,24.50
2022-08-05T01:36:42.322Z,24.40
2022-08-05T01:39:46.390Z,24.30
2022-08-05T01:42:10.702Z,24.20
2022-08-05T01:44:54.355Z,24.20
2022-08-05T01:47:39.557Z,24.20
2022-08-05T01:50:16.167Z,24.20
2022-08-05T01:52:49.769Z,24.20
2022-08-05T01:55:23.668Z,24.20
2022-08-05T01:58:10.131Z,24.20
2022-08-05T02:00:51.708Z,24.20
2022-08-05T02:03:31.805Z,24.20
2022-08-05T02:06:03.564Z,24.10
2022-08-05T02:08:57.815Z,24.10
2022-08-05T02:11:32.843Z,24.00
2022-08-05T02:14:14.103Z,24.00
2022-08-05T02:16:52.224Z,24.00
2022-08-05T02:19:34.944Z,24.00
2022-08-05T02:22:25.677Z,24.00
2022-08-05T02:25:06.078Z,23.90
2022-08-05T02:27:58.233Z,24.00
2022-08-05T02:30:36.528Z,24.00
2022-08-05T02:33:11.004Z,24.00
2022-08-05T02:35:44.933Z,24.00
2022-08-05T02:38:35.177Z,24.00
2022-08-05T02:41:17.269Z,24.00
2022-08-05T02:44:06.495Z,24.00
2022-08-05T02:46:44.079Z,24.10
2022-08-05T02:49:36.344Z,24.10
2022-08-05T02:52:11.409Z,24.00
2022-08-05T02:54:50.909Z,23.90
2022-08-05T02:58:20.354Z,24.00
2022-08-05T03:00:15.137Z,24.00
2022-08-05T03:02:46.555Z,24.00
2022-08-05T03:05:17.523Z,24.00
2022-08-05T03:08:06.928Z,24.00
2022-08-05T03:10:37.533Z,24.00
2022-08-05T03:13:16.716Z,23.90
2022-08-05T03:15:47.900Z,23.90
2022-08-05T03:18:17.452Z,24.00
2022-08-05T03:20:48.581Z,24.00
2022-08-05T03:23:18.208Z,24.00
2022-08-05T03:26:05.120Z,24.00
2022-08-05T03:28:42.057Z,24.00
2022-08-05T03:31:11.359Z,24.00
2022-08-05T03:34:00.554Z,24.00
2022-08-05T03:36:32.737Z,24.00
2022-08-05T03:39:13.013Z,24.00
2022-08-05T03:41:48.764Z,23.90
2022-08-05T03:44:21.385Z,23.90
2022-08-05T03:46:50.115Z,23.90
2022-08-05T03:49:18.964Z,23.90
2022-08-05T03:52:36.835Z,23.90
2022-08-05T03:56:00.779Z,24.00
2022-08-05T03:57:49.917Z,24.00
2022-08-05T04:00:21.970Z,24.20
2022-08-05T04:02:58.374Z,24.30
2022-08-05T04:05:33.806Z,24.40
2022-08-05T04:08:14.504Z,24.60
2022-08-05T04:10:59.051Z,24.70
2022-08-05T04:13:50.948Z,24.80
2022-08-05T04:16:24.913Z,25.00
2022-08-05T04:18:59.965Z,25.10
2022-08-05T04:22:08.864Z,25.40
2022-08-05T04:24:22.491Z,25.60
2022-08-05T04:26:51.889Z,25.90
2022-08-05T04:29:20.804Z,26.20
2022-08-05T04:31:49.615Z,26.30
2022-08-05T04:34:32.512Z,26.50
2022-08-05T04:37:03.339Z,26.70
2022-08-05T04:39:35.336Z,27.00
2022-08-05T04:42:05.093Z,27.30
2022-08-05T04:44:33.790Z,27.50
2022-08-05T04:47:09.900Z,27.80
2022-08-05T04:50:02.830Z,28.10
2022-08-05T04:52:29.427Z,28.30
2022-08-05T04:55:09.570Z,28.50
2022-08-05T04:57:47.978Z,28.80
2022-08-05T05:00:23.609Z,29.20
2022-08-05T05:02:53.156Z,29.60
2022-08-05T05:05:28.906Z,30.20
2022-08-05T05:08:02.409Z,30.60
2022-08-05T05:10:35.049Z,31.10
2022-08-05T05:13:04.476Z,31.30
2022-08-05T05:15:56.211Z,31.60
2022-08-05T05:18:28.710Z,31.70
2022-08-05T05:21:03.624Z,31.80
2022-08-05T05:24:02.015Z,32.40
2022-08-05T05:26:28.824Z,32.40
2022-08-05T05:29:10.055Z,32.00
2022-08-05T05:31:46.555Z,31.70
2022-08-05T05:34:16.182Z,31.80
2022-08-05T05:36:47.211Z,32.30
2022-08-05T05:39:19.810Z,32.50
2022-08-05T05:41:54.152Z,32.70
2022-08-05T05:44:36.766Z,32.90
2022-08-05T05:47:21.223Z,33.00
2022-08-05T05:49:56.744Z,32.80
2022-08-05T05:52:34.519Z,33.40
2022-08-05T05:55:13.605Z,33.80
2022-08-05T05:57:52.863Z,33.70
2022-08-05T06:00:27.762Z,33.00
2022-08-05T06:03:02.445Z,33.30
2022-08-05T06:05:31.811Z,33.40
2022-08-05T06:08:01.626Z,33.80
2022-08-05T06:10:36.402Z,34.10
2022-08-05T06:13:07.608Z,34.10
2022-08-05T06:16:29.067Z,34.40
2022-08-05T06:18:31.026Z,34.10
2022-08-05T06:21:01.331Z,34.10
2022-08-05T06:23:43.534Z,34.00
2022-08-05T06:26:21.478Z,33.60
2022-08-05T06:28:54.319Z,33.70
2022-08-05T06:31:22.909Z,34.00
2022-08-05T06:34:07.337Z,34.20
2022-08-05T06:36:57.149Z,34.60
2022-08-05T06:39:28.024Z,34.80
2022-08-05T06:41:58.813Z,34.60
2022-08-05T06:44:29.664Z,34.00
2022-08-05T06:46:58.972Z,34.10
2022-08-05T06:50:00.043Z,33.90
2022-08-05T06:52:38.094Z,34.20
2022-08-05T06:55:09.752Z,34.70
2022-08-05T06:57:58.198Z,35.10
2022-08-05T07:00:31.446Z,34.50
2022-08-05T07:03:00.134Z,34.90
2022-08-05T07:05:37.790Z,35.30
2022-08-05T07:08:10.721Z,35.50
2022-08-05T07:10:52.977Z,35.30
2022-08-05T07:13:57.818Z,35.30
2022-08-05T07:18:01.493Z,35.50
2022-08-05T07:22:28.790Z,35.90
2022-08-05T07:25:22.445Z,36.20
2022-08-05T07:27:57.970Z,36.60
2022-08-05T07:30:33.606Z,36.70
2022-08-05T07:33:09.276Z,36.80
2022-08-05T07:36:02.761Z,36.80
2022-08-05T07:38:34.292Z,37.40
2022-08-05T07:42:08.288Z,37.70
2022-08-05T07:44:00.748Z,37.80
2022-08-05T07:46:31.871Z,37.90
2022-08-05T07:49:07.828Z,37.60
2022-08-05T07:51:48.696Z,37.10
2022-08-05T07:54:31.446Z,37.50
2022-08-05T07:57:22.456Z,37.90
2022-08-05T07:59:53.448Z,38.00
2022-08-05T08:02:31.440Z,38.40
2022-08-05T08:05:17.968Z,38.50
2022-08-05T08:08:00.006Z,38.10
2022-08-05T08:10:30.475Z,37.80
2022-08-05T08:13:01.655Z,38.00
2022-08-05T08:16:33.845Z,38.00
2022-08-05T08:18:20.983Z,37.90
2022-08-05T08:21:02.430Z,38.20
2022-08-05T08:24:02.489Z,38.60
2022-08-05T08:26:26.745Z,38.70
2022-08-05T08:29:21.768Z,38.60
2022-08-05T08:31:49.687Z,38.40
2022-08-05T08:34:18.958Z,37.80
2022-08-05T08:37:04.761Z,37.60
2022-08-05T08:39:37.572Z,37.60
2022-08-05T08:42:34.085Z,37.90
2022-08-05T08:45:24.750Z,37.70
2022-08-05T08:48:12.845Z,37.30
2022-08-05T08:51:04.068Z,37.30
2022-08-05T08:53:45.222Z,37.50
2022-08-05T08:56:14.395Z,37.50
2022-08-05T08:58:47.727Z,37.70
2022-08-05T09:01:19.015Z,37.50
2022-08-05T09:03:55.207Z,37.40
2022-08-05T09:06:29.514Z,37.70
2022-08-05T09:09:02.697Z,37.70
2022-08-05T09:11:51.525Z,37.40
2022-08-05T09:14:57.030Z,37.10
2022-08-05T09:17:39.970Z,36.50
2022-08-05T09:20:05.932Z,37.10
2022-08-05T09:23:19.559Z,37.30
2022-08-05T09:26:02.045Z,37.70
2022-08-05T09:28:35.044Z,38.00
2022-08-05T09:31:43.881Z,38.10
2022-08-05T09:34:00.091Z,38.70
2022-08-05T09:36:54.726Z,39.40
2022-08-05T09:39:39.507Z,40.00
2022-08-05T09:42:23.141Z,40.30
2022-08-05T09:45:17.549Z,40.70
2022-08-05T09:47:55.362Z,40.90
2022-08-05T09:50:38.835Z,41.00
2022-08-05T09:53:23.074Z,40.90
2022-08-05T09:56:04.757Z,40.80
2022-08-05T09:58:42.491Z,40.70
2022-08-05T10:01:32.131Z,40.10
2022-08-05T10:04:10.259Z,40.20
2022-08-05T10:06:54.996Z,40.50
2022-08-05T10:09:30.081Z,40.80
2022-08-05T10:12:30.671Z,40.90
2022-08-05T10:15:25.783Z,41.10
2022-08-05T10:18:08.816Z,40.80
2022-08-05T10:20:41.947Z,40.70
2022-08-05T10:23:34.264Z,40.00
2022-08-05T10:26:07.268Z,39.60
2022-08-05T10:28:37.507Z,39.70
2022-08-05T10:32:48.155Z,39.70
2022-08-05T10:33:58.806Z,39.80
2022-08-05T10:36:29.850Z,39.90
2022-08-05T10:39:11.696Z,39.70
2022-08-05T10:41:59.093Z,39.50
2022-08-05T10:44:33.566Z,39.50
2022-08-05T10:47:25.912Z,39.40
2022-08-05T10:50:35.449Z,39.30
2022-08-05T10:53:00.070Z,39.30
2022-08-05T10:55:38.458Z,38.60
2022-08-05T10:58:20.745Z,38.20
2022-08-05T11:00:55.289Z,38.50
2022-08-05T11:03:33.794Z,38.70
2022-08-05T11:06:15.344Z,39.00
2022-08-05T11:09:39.027Z,39.30
2022-08-05T11:12:54.336Z,39.60
2022-08-05T11:16:01.392Z,39.80
2022-08-05T11:18:30.063Z,40.00
2022-08-05T11:21:11.451Z,40.10
2022-08-05T11:24:05.631Z,40.20
2022-08-05T11:26:43.783Z,40.10
2022-08-05T11:29:41.113Z,40.20
2022-08-05T11:32:26.995Z,40.20
2022-08-05T11:34:57.486Z,40.30
2022-08-05T11:38:29.001Z,40.40
2022-08-05T11:41:35.510Z,40.50
2022-08-05T11:44:05.766Z,40.50
2022-08-05T11:47:09.322Z,40.30
2022-08-05T11:49:28.222Z,40.30
2022-08-05T11:51:57.758Z,40.30
2022-08-05T11:54:34.401Z,40.10
2022-08-05T11:57:08.575Z,40.00
2022-08-05T11:59:55.995Z,39.90
2022-08-05T12:02:33.046Z,39.70
2022-08-05T12:05:08.122Z,39.40
2022-08-05T12:08:10.444Z,39.20
2022-08-05T12:10:45.756Z,39.00
2022-08-05T12:13:18.962Z,39.00
2022-08-05T12:16:14.910Z,38.90
2022-08-05T12:18:52.105Z,38.80
2022-08-05T12:21:26.959Z,38.70
2022-08-05T12:24:07.325Z,38.70
2022-08-05T12:26:40.953Z,38.70
2022-08-05T12:29:17.884Z,38.60
2022-08-05T12:31:55.194Z,38.50
2022-08-05T12:34:28.641Z,38.50
2022-08-05T12:36:59.961Z,38.50
2022-08-05T12:39:37.336Z,38.40
2022-08-05T12:42:15.323Z,38.40
2022-08-05T12:44:47.541Z,38.30
2022-08-05T12:47:30.488Z,38.30
2022-08-05T12:50:04.339Z,38.30
2022-08-05T12:52:39.646Z,38.20
2022-08-05T12:55:26.613Z,38.20
2022-08-05T12:58:50.149Z,38.00
2022-08-05T13:02:00.940Z,38.00
2022-08-05T13:03:43.258Z,38.00
2022-08-05T13:06:20.004Z,37.90
2022-08-05T13:08:52.085Z,37.90
2022-08-05T13:11:59.813Z,38.00
2022-08-05T13:14:20.135Z,37.90
2022-08-05T13:16:56.916Z,37.90
2022-08-05T13:19:27.703Z,38.00
2022-08-05T13:22:29.355Z,38.00
2022-08-05T13:25:05.426Z,37.90
2022-08-05T13:27:39.893Z,37.60
2022-08-05T13:30:35.274Z,37.20
2022-08-05T13:33:02.673Z,36.90
2022-08-05T13:35:47.005Z,36.70
2022-08-05T13:38:30.197Z,36.40
2022-08-05T13:41:02.950Z,36.20
2022-08-05T13:43:44.561Z,36.00
2022-08-05T13:46:50.606Z,36.00
2022-08-05T13:49:13.835Z,36.10
2022-08-05T13:51:46.717Z,36.30
2022-08-05T13:54:21.130Z,36.60
2022-08-05T13:56:54.452Z,36.90
2022-08-05T13:59:27.096Z,37.20
2022-08-05T14:02:00.491Z,37.50
2022-08-05T14:04:51.130Z,37.70
2022-08-05T14:08:01.041Z,37.90
2022-08-05T14:10:18.448Z,38.00
2022-08-05T14:12:49.118Z,38.10
2022-08-05T14:16:07.848Z,38.20
2022-08-05T14:18:14.947Z,38.20
2022-08-05T14:20:48.512Z,38.20
2022-08-05T14:23:24.783Z,38.30
2022-08-05T14:25:57.994Z,38.20
2022-08-05T14:28:28.778Z,38.30
2022-08-05T14:30:58.354Z,38.40
2022-08-05T14:33:56.555Z,38.40
2022-08-05T14:36:20.642Z,38.40
2022-08-05T14:38:51.609Z,38.40
2022-08-05T14:41:20.674Z,38.40
2022-08-05T14:44:02.575Z,38.30
2022-08-05T14:46:39.174Z,37.90
2022-08-05T14:49:10.455Z,37.50
2022-08-05T14:51:42.773Z,37.40
2022-08-05T14:54:28.544Z,37.10
2022-08-05T14:56:59.930Z,36.80
2022-08-05T14:59:35.679Z,36.60
2022-08-05T15:02:15.024Z,36.50
2022-08-05T15:04:47.746Z,36.40
2022-08-05T15:08:08.938Z,36.20
2022-08-05T15:10:09.516Z,36.10
2022-08-05T15:12:59.772Z,36.10
2022-08-05T15:15:54.866Z,36.20
2022-08-05T15:18:21.934Z,36.60
2022-08-05T15:20:52.618Z,36.80
2022-08-05T15:23:21.584Z,37.00
2022-08-05T15:25:55.876Z,37.20
2022-08-05T15:28:27.996Z,37.30
2022-08-05T15:30:58.174Z,37.50
2022-08-05T15:33:56.546Z,37.30
2022-08-05T15:36:24.656Z,37.00
2022-08-05T15:40:58.831Z,36.80
2022-08-05T15:41:56.208Z,36.60
2022-08-05T15:44:27.945Z,36.50
2022-08-05T15:46:59.517Z,36.40
2022-08-05T15:49:53.570Z,36.30
2022-08-05T15:52:51.989Z,36.20
2022-08-05T15:55:10.410Z,36.10
2022-08-05T15:57:48.841Z,36.00
2022-08-05T16:00:26.124Z,36.00
2022-08-05T16:03:07.473Z,35.90
2022-08-05T16:05:36.419Z,35.90
2022-08-05T16:08:09.196Z,35.80
2022-08-05T16:10:38.038Z,35.90
2022-08-05T16:13:10.662Z,36.10
2022-08-05T16:15:40.022Z,36.30
2022-08-05T16:18:12.396Z,36.40
2022-08-05T16:20:43.131Z,36.50
2022-08-05T16:23:16.159Z,36.50
2022-08-05T16:25:45.253Z,36.50
2022-08-05T16:28:16.602Z,36.50
2022-08-05T16:30:45.879Z,36.50
2022-08-05T16:33:19.098Z,36.70
2022-08-05T16:35:52.432Z,36.60
2022-08-05T16:38:25.165Z,36.30
2022-08-05T16:41:00.309Z,36.10
2022-08-05T16:43:32.604Z,35.90
2022-08-05T16:46:23.752Z,35.80
2022-08-05T16:48:52.735Z,36.00
2022-08-05T16:51:21.694Z,36.20
2022-08-05T16:54:05.421Z,36.40
2022-08-05T16:56:41.473Z,36.60
2022-08-05T16:59:10.878Z,36.50
2022-08-05T17:01:52.808Z,36.20
2022-08-05T17:04:26.615Z,36.00
2022-08-05T17:07:00.233Z,35.80
2022-08-05T17:09:57.578Z,35.60
2022-08-05T17:12:22.728Z,35.40
2022-08-05T17:15:15.571Z,35.30
2022-08-05T17:17:54.492Z,35.20
2022-08-05T17:20:25.097Z,35.10
2022-08-05T17:22:57.635Z,35.20
2022-08-05T17:25:39.434Z,35.40
2022-08-05T17:28:09.912Z,35.70
2022-08-05T17:30:42.513Z,35.70
2022-08-05T17:33:19.929Z,35.90
2022-08-05T17:36:07.581Z,35.90
2022-08-05T17:38:37.641Z,35.90
2022-08-05T17:41:22.923Z,35.60
2022-08-05T17:43:59.402Z,35.40
2022-08-05T17:46:28.222Z,35.10
2022-08-05T17:48:57.093Z,34.90
2022-08-05T17:51:26.913Z,34.70
2022-08-05T17:53:55.643Z,34.60
2022-08-05T17:56:28.280Z,34.40
2022-08-05T17:58:57.819Z,34.30
2022-08-05T18:01:26.946Z,34.20
2022-08-05T18:04:03.646Z,34.10
2022-08-05T18:06:33.587Z,34.20
2022-08-05T18:09:03.713Z,34.40
2022-08-05T18:11:34.358Z,34.50
2022-08-05T18:14:07.466Z,34.70
2022-08-05T18:16:49.601Z,34.80
2022-08-05T18:19:22.777Z,34.60
2022-08-05T18:22:09.379Z,34.20
2022-08-05T18:24:40.442Z,34.00
2022-08-05T18:27:18.054Z,33.70
2022-08-05T18:29:54.184Z,33.50
2022-08-05T18:32:27.707Z,33.40
2022-08-05T18:34:56.841Z,33.20
2022-08-05T18:37:34.198Z,33.00
2022-08-05T18:40:34.045Z,32.80
2022-08-05T18:43:02.572Z,32.60
2022-08-05T18:45:41.861Z,32.60
2022-08-05T18:48:12.111Z,32.50
2022-08-05T18:52:06.556Z,32.30
2022-08-05T18:54:07.102Z,32.10
2022-08-05T18:56:38.364Z,32.30
2022-08-05T18:59:43.619Z,32.60
2022-08-05T19:01:58.440Z,32.60
2022-08-05T19:04:27.599Z,32.40
2022-08-05T19:06:56.605Z,32.30
2022-08-05T19:09:25.384Z,32.00
2022-08-05T19:11:59.382Z,32.00
2022-08-05T19:14:59.209Z,32.20
2022-08-05T19:17:22.110Z,32.60
2022-08-05T19:19:50.904Z,33.00
2022-08-05T19:22:27.416Z,33.20
2022-08-05T19:25:00.840Z,33.30
2022-08-05T19:27:31.678Z,33.50
2022-08-05T19:30:03.485Z,33.40
2022-08-05T19:32:33.374Z,33.40
2022-08-05T19:35:05.668Z,33.20
2022-08-05T19:38:04.484Z,32.90
2022-08-05T19:40:24.618Z,32.60
2022-08-05T19:43:04.634Z,32.50
2022-08-05T19:45:36.915Z,32.30
2022-08-05T19:48:07.370Z,32.20
2022-08-05T19:50:43.721Z,32.10
2022-08-05T19:53:13.067Z,31.90
2022-08-05T19:56:15.202Z,31.80
2022-08-05T19:58:30.759Z,31.70
2022-08-05T20:01:08.648Z,31.60
2022-08-05T20:03:40.855Z,31.60
2022-08-05T20:06:15.361Z,31.50
2022-08-05T20:08:47.601Z,31.50
2022-08-05T20:11:18.268Z,31.40
2022-08-05T20:13:58.617Z,31.30
2022-08-05T20:16:38.847Z,31.30
2022-08-05T20:19:08.123Z,31.30
2022-08-05T20:21:38.344Z,31.20
2022-08-05T20:24:11.430Z,31.00
2022-08-05T20:26:40.491Z,31.00
2022-08-05T20:29:26.792Z,30.90
2022-08-05T20:31:59.804Z,30.80
2022-08-05T20:34:28.863Z,30.70
2022-08-05T20:36:57.618Z,30.70
2022-08-05T20:39:36.738Z,30.70
2022-08-05T20:42:06.414Z,30.70
2022-08-05T20:44:40.829Z,31.00
2022-08-05T20:47:11.626Z,31.20
2022-08-05T20:49:40.439Z,31.40
2022-08-05T20:52:10.808Z,31.60
2022-08-05T20:54:59.925Z,31.70
2022-08-05T20:57:43.023Z,31.40
2022-08-05T21:00:40.351Z,31.10
2022-08-05T21:03:08.313Z,30.90
2022-08-05T21:05:53.505Z,30.60
2022-08-05T21:08:32.967Z,30.50
2022-08-05T21:11:12.428Z,30.40
2022-08-05T21:13:55.673Z,30.30
2022-08-05T21:16:29.963Z,30.30
2022-08-05T21:19:03.460Z,30.20
2022-08-05T21:21:39.696Z,30.10
2022-08-05T21:24:15.637Z,30.10
2022-08-05T21:26:53.650Z,30.10
2022-08-05T21:29:31.343Z,30.10
2022-08-05T21:32:02.717Z,30.40
2022-08-05T21:34:35.420Z,30.40
2022-08-05T21:37:05.159Z,30.30
2022-08-05T21:39:34.705Z,30.20
2022-08-05T21:42:30.479Z,30.10
2022-08-05T21:44:58.218Z,30.00
2022-08-05T21:47:55.683Z,29.90
2022-08-05T21:50:17.754Z,29.90
2022-08-05T21:52:47.455Z,29.90
2022-08-05T21:55:17.295Z,30.10
2022-08-05T21:57:46.506Z,30.30
2022-08-05T22:00:16.754Z,30.30
2022-08-05T22:02:46.925Z,30.30
2022-08-05T22:05:17.295Z,30.30
2022-08-05T22:07:58.195Z,30.20
2022-08-05T22:10:29.380Z,30.00
2022-08-05T22:13:08.831Z,29.90
2022-08-05T22:16:04.632Z,29.70
2022-08-05T22:18:36.544Z,29.50
2022-08-05T22:21:19.481Z,29.40
2022-08-05T22:24:08.697Z,29.30
2022-08-05T22:26:58.965Z,29.20
2022-08-05T22:29:30.692Z,29.10
2022-08-05T22:32:03.139Z,29.00
2022-08-05T22:34:33.076Z,29.00
2022-08-05T22:37:04.665Z,29.00
2022-08-05T22:39:34.780Z,29.00
2022-08-05T22:42:10.556Z,28.90
2022-08-05T22:44:40.919Z,28.90
2022-08-05T22:47:29.133Z,28.90
2022-08-05T22:50:20.226Z,28.90
2022-08-05T22:52:52.895Z,28.70
2022-08-05T22:55:23.650Z,28.60
2022-08-05T22:57:53.639Z,28.60
2022-08-05T23:00:26.506Z,28.70
2022-08-05T23:02:56.367Z,28.70
2022-08-05T23:05:27.347Z,28.70
2022-08-05T23:07:57.422Z,28.60
2022-08-05T23:10:26.129Z,28.60
2022-08-05T23:12:56.011Z,28.60
2022-08-05T23:15:28.953Z,28.60
2022-08-05T23:18:02.172Z,28.60
2022-08-05T23:20:32.893Z,28.50
2022-08-05T23:23:05.823Z,28.50
2022-08-05T23:25:53.471Z,28.50
2022-08-05T23:28:28.743Z,28.50
2022-08-05T23:31:15.869Z,28.50
2022-08-05T23:34:04.915Z,28.50
2022-08-05T23:36:38.558Z,28.50
2022-08-05T23:39:09.752Z,28.40
2022-08-05T23:41:48.757Z,28.40
2022-08-05T23:44:19.773Z,28.50
2022-08-05T23:46:51.359Z,28.50
2022-08-05T23:49:25.184Z,28.50
2022-08-05T23:52:20.391Z,28.50
2022-08-05T23:54:51.646Z,28.50
2022-08-05T23:57:20.453Z,28.40
